createdAt,value
2022-10-31T00:04:12.768Z,11.6
2022-10-31T00:18:12.773Z,11.5
2022-10-31T00:32:12.786Z,11.7
2022-10-31T00:46:12.778Z,11.6
2022-10-31T01:00:12.793Z,11.5
2022-10-31T01:14:12.870Z,11.3
2022-10-31T01:28:12.893Z,11.2
2022-10-31T01:42:12.879Z,11.0
2022-10-31T01:56:12.857Z,11.0
2022-10-31T02:10:12.876Z,11.0
2022-10-31T02:24:12.886Z,10.9
2022-10-31T02:38:12.879Z,11.0
2022-10-31T02:52:12.908Z,11.0
2022-10-31T03:06:12.886Z,10.7
2022-10-31T03:20:12.903Z,10.8
2022-10-31T03:34:12.894Z,10.5
2022-10-31T03:48:12.892Z,10.7
2022-10-31T04:02:13.019Z,10.5
2022-10-31T04:16:15.947Z,10.4
2022-10-31T04:30:12.949Z,10.6
2022-10-31T04:44:12.918Z,11.1
2022-10-31T04:58:12.963Z,10.5
2022-10-31T05:12:13.203Z,10.6
2022-10-31T05:26:13.329Z,10.3
2022-10-31T05:40:13.347Z,10.5
2022-10-31T05:55:13.409Z,10.6
2022-10-31T06:10:13.406Z,10.1
2022-10-31T06:25:13.403Z,10.6
2022-10-31T06:40:13.415Z,11.1
2022-10-31T06:55:13.424Z,11.4
2022-10-31T07:10:13.768Z,12.1
2022-10-31T07:25:13.829Z,13.6
2022-10-31T07:40:13.825Z,16.2
2022-10-31T07:55:13.836Z,19.5
2022-10-31T08:10:13.857Z,20.7
2022-10-31T08:25:13.861Z,21.6
2022-10-31T08:40:13.857Z,21.9
2022-10-31T08:55:13.875Z,21.9
2022-10-31T09:10:13.869Z,22.3
2022-10-31T09:25:13.867Z,22.4
2022-10-31T09:40:13.905Z,22.4
2022-10-31T09:55:13.910Z,22.5
2022-10-31T10:10:13.915Z,22.3
2022-10-31T10:25:13.911Z,22.5
2022-10-31T10:40:14.069Z,22.4
2022-10-31T10:55:14.007Z,22.9
2022-10-31T11:10:14.014Z,23.2
2022-10-31T11:25:14.010Z,23.9
2022-10-31T11:40:14.002Z,24.7
2022-10-31T11:55:14.047Z,24.5
2022-10-31T12:10:14.032Z,25.0
2022-10-31T12:25:14.038Z,25.4
2022-10-31T12:40:14.120Z,25.4
2022-10-31T12:55:14.039Z,24.7
2022-10-31T13:10:14.042Z,25.3
2022-10-31T13:26:14.036Z,25.0
2022-10-31T13:42:14.070Z,25.2
2022-10-31T13:58:14.056Z,24.8
2022-10-31T14:14:14.056Z,25.2
2022-10-31T14:29:14.055Z,24.6
2022-10-31T14:44:14.068Z,24.5
2022-10-31T14:59:14.087Z,24.4
2022-10-31T15:14:14.181Z,23.3
2022-10-31T15:29:14.108Z,20.8
2022-10-31T15:44:14.128Z,18.7
2022-10-31T15:59:14.134Z,17.4
2022-10-31T16:16:33.945Z,16.5
2022-10-31T16:31:14.153Z,15.8
2022-10-31T17:00:14.147Z,14.7
2022-10-31T17:14:14.251Z,14.1
2022-10-31T17:28:14.185Z,13.8
2022-10-31T17:42:14.220Z,13.5
2022-10-31T17:56:14.198Z,14.1
2022-10-31T18:10:14.192Z,13.4
2022-10-31T18:24:14.209Z,12.8
2022-10-31T18:38:14.254Z,12.8
2022-10-31T18:52:14.743Z,12.5
2022-10-31T19:06:14.365Z,12.5
2022-10-31T19:20:14.287Z,12.4
2022-10-31T19:34:14.357Z,12.1
2022-10-31T19:48:14.387Z,11.9
2022-10-31T20:02:14.435Z,11.8
2022-10-31T20:16:14.443Z,11.6
2022-10-31T20:30:14.454Z,11.4
2022-10-31T20:44:14.514Z,11.6
2022-10-31T20:58:14.511Z,11.5
2022-10-31T21:12:14.544Z,11.1
2022-10-31T21:26:14.513Z,11.0
2022-10-31T21:40:14.549Z,11.1
2022-10-31T21:54:14.531Z,10.9
2022-10-31T22:08:14.539Z,10.9
2022-10-31T22:22:14.556Z,10.8
2022-10-31T22:36:14.545Z,10.8
2022-10-31T22:50:14.568Z,10.6
2022-10-31T23:04:14.604Z,10.7
2022-10-31T23:18:30.022Z,10.5
2022-10-31T23:32:14.621Z,10.7
2022-10-31T23:46:14.592Z,10.5
